Time;durP1;ratioP1;P1;durP2;ratioP2;P2;SDS_P1;SDS_P2;PMS_P1;PMS_P2;Temp;Humidity;BMP_temperature;BMP_pressure;BME280_temperature;BME280_humidity;BME280_pressure;Samples;Min_cycle;Max_cycle;Signal;HPM_P1;HPM_P2
2020/12/19 00:00:15;;;;;;;18.67;10.90;;;6.90;90.30;;;;;;5055263;28;20487;-74
2020/12/19 00:02:41;;;;;;;19.17;10.80;;;6.70;90.30;;;;;;5054034;28;20049;-73
2020/12/19 00:05:07;;;;;;;18.77;11.43;;;6.70;90.30;;;;;;5055006;28;20107;-73
2020/12/19 00:07:33;;;;;;;18.97;10.87;;;6.70;90.30;;;;;;5055085;28;20427;-74
2020/12/19 00:10:00;;;;;;;20.63;11.93;;;6.70;90.30;;;;;;5055117;28;20028;-73
2020/12/19 00:12:26;;;;;;;19.33;11.23;;;6.70;90.30;;;;;;5055200;28;20045;-73
2020/12/19 00:14:52;;;;;;;18.67;11.33;;;6.70;90.30;;;;;;5054800;28;20050;-74
2020/12/19 00:17:17;;;;;;;19.23;11.03;;;6.60;90.30;;;;;;5054832;28;20036;-73
2020/12/19 00:19:43;;;;;;;22.63;11.63;;;6.70;90.40;;;;;;5054734;28;20029;-74
2020/12/19 00:22:09;;;;;;;21.30;11.67;;;6.70;90.70;;;;;;5054759;28;20029;-73
2020/12/19 00:24:34;;;;;;;19.50;11.57;;;6.60;90.40;;;;;;5053540;28;20035;-73
2020/12/19 00:27:00;;;;;;;19.50;12.77;;;6.60;90.50;;;;;;5053440;28;20064;-74
2020/12/19 00:29:25;;;;;;;22.23;11.87;;;6.60;90.50;;;;;;5053614;28;20068;-73
2020/12/19 00:31:51;;;;;;;21.70;11.87;;;6.70;90.50;;;;;;5053394;28;20028;-73
2020/12/19 00:34:18;;;;;;;20.13;12.47;;;6.60;90.50;;;;;;5054506;28;20079;-74
2020/12/19 00:36:44;;;;;;;21.73;12.83;;;6.50;90.50;;;;;;5054696;28;20020;-74
2020/12/19 00:39:10;;;;;;;20.07;13.23;;;6.50;90.60;;;;;;5054467;28;20057;-73
2020/12/19 00:41:36;;;;;;;22.57;13.53;;;6.60;90.60;;;;;;5054421;28;20025;-73
2020/12/19 00:44:01;;;;;;;22.37;13.60;;;6.50;90.70;;;;;;5053448;28;20326;-74
2020/12/19 00:46:27;;;;;;;22.83;13.50;;;6.60;90.60;;;;;;5054427;28;20445;-74
2020/12/19 00:48:53;;;;;;;21.97;13.10;;;6.50;90.60;;;;;;5054396;28;20388;-73
2020/12/19 00:51:21;;;;;;;21.57;12.60;;;6.50;90.70;;;;;;5054284;28;20029;-74
2020/12/19 00:53:47;;;;;;;21.40;13.17;;;6.50;90.60;;;;;;5054175;28;20025;-73
2020/12/19 00:56:23;;;;;;;21.53;13.83;;;6.50;90.70;;;;;;5052603;28;20029;-73
2020/12/19 00:58:50;;;;;;;22.67;14.20;;;6.50;90.80;;;;;;5054010;28;20029;-74
2020/12/19 01:01:18;;;;;;;24.27;14.37;;;6.50;90.80;;;;;;5053105;28;20048;-73
2020/12/19 01:03:45;;;;;;;23.07;13.60;;;6.40;90.70;;;;;;5054206;28;20482;-74
2020/12/19 01:06:18;;;;;;;21.63;13.67;;;6.40;90.80;;;;;;5053959;28;20022;-73
2020/12/19 01:08:47;;;;;;;23.00;14.10;;;6.40;90.90;;;;;;5053985;28;20032;-73
2020/12/19 01:11:14;;;;;;;21.60;12.70;;;6.40;91.10;;;;;;5053930;28;20032;-73
2020/12/19 01:13:41;;;;;;;23.37;14.70;;;6.40;90.90;;;;;;5053828;28;20163;-73
2020/12/19 01:16:07;;;;;;;22.43;13.77;;;6.40;90.90;;;;;;5053861;28;20052;-74
2020/12/19 01:18:32;;;;;;;28.23;14.83;;;6.40;91.20;;;;;;5053760;28;20052;-73
2020/12/19 01:20:58;;;;;;;22.90;14.80;;;6.40;91.00;;;;;;5053912;28;20029;-73
2020/12/19 01:23:23;;;;;;;23.50;14.17;;;6.40;90.90;;;;;;5053792;28;20029;-73
2020/12/19 01:25:49;;;;;;;24.77;15.17;;;6.40;91.00;;;;;;5053662;28;20021;-73
2020/12/19 01:28:15;;;;;;;22.30;13.93;;;6.40;91.00;;;;;;5053508;28;20029;-73
2020/12/19 01:30:40;;;;;;;22.33;14.07;;;6.30;91.00;;;;;;5052313;28;20079;-73
2020/12/19 01:33:06;;;;;;;26.43;14.83;;;6.30;91.00;;;;;;5052176;28;20519;-73
2020/12/19 01:35:32;;;;;;;22.33;13.60;;;6.30;91.10;;;;;;5052643;28;20021;-73
2020/12/19 01:37:57;;;;;;;21.83;13.87;;;6.30;91.10;;;;;;5053190;28;20025;-73
2020/12/19 01:40:23;;;;;;;24.37;14.03;;;6.30;91.00;;;;;;5053608;28;20057;-73
2020/12/19 01:42:48;;;;;;;24.30;14.30;;;6.30;91.10;;;;;;5053282;28;20099;-73
2020/12/19 01:45:14;;;;;;;22.83;14.30;;;6.20;91.10;;;;;;5053683;28;20049;-73
2020/12/19 01:47:40;;;;;;;23.37;14.40;;;6.20;91.10;;;;;;5035855;28;20029;-73
2020/12/19 01:50:06;;;;;;;26.30;14.97;;;6.30;91.20;;;;;;5053288;28;20087;-73
2020/12/19 01:52:34;;;;;;;23.10;14.13;;;6.20;91.20;;;;;;5053350;28;20365;-72
2020/12/19 01:55:01;;;;;;;25.17;14.80;;;6.20;91.20;;;;;;5053297;28;20025;-73
2020/12/19 01:57:30;;;;;;;25.00;15.07;;;6.20;91.20;;;;;;5053131;28;20033;-73
2020/12/19 01:59:56;;;;;;;23.83;14.70;;;6.20;91.20;;;;;;5053120;28;20036;-73
2020/12/19 02:02:23;;;;;;;22.33;13.87;;;6.20;91.20;;;;;;5053024;28;20045;-72
2020/12/19 02:04:49;;;;;;;24.10;15.07;;;6.20;91.30;;;;;;5053086;28;20473;-72
2020/12/19 02:07:15;;;;;;;26.23;14.97;;;6.10;91.30;;;;;;5053119;28;20029;-72
2020/12/19 02:09:41;;;;;;;27.10;15.70;;;6.10;91.30;;;;;;5053097;28;20108;-72
2020/12/19 02:12:09;;;;;;;25.17;15.17;;;6.10;91.40;;;;;;5053094;28;20067;-72
2020/12/19 02:14:35;;;;;;;27.30;15.93;;;6.10;91.40;;;;;;5053236;28;20039;-72
2020/12/19 02:17:03;;;;;;;27.90;15.20;;;6.10;91.50;;;;;;5053146;28;20036;-72
2020/12/19 02:19:30;;;;;;;26.70;14.27;;;6.10;91.40;;;;;;5053405;28;20028;-72
2020/12/19 02:21:57;;;;;;;24.47;14.17;;;6.10;91.50;;;;;;5053016;28;20017;-73
2020/12/19 02:24:23;;;;;;;27.20;15.63;;;6.10;91.50;;;;;;5053171;28;20025;-73
2020/12/19 02:26:51;;;;;;;26.07;15.13;;;6.10;91.60;;;;;;5055783;28;20104;-73
2020/12/19 02:29:18;;;;;;;25.70;14.93;;;6.20;91.60;;;;;;5057009;28;20396;-73
2020/12/19 02:31:45;;;;;;;27.53;15.60;;;6.20;91.60;;;;;;5055693;28;20032;-73
2020/12/19 02:34:11;;;;;;;24.47;15.37;;;6.10;91.60;;;;;;5056866;28;20075;-73
2020/12/19 02:36:38;;;;;;;25.93;15.43;;;6.20;91.60;;;;;;5055539;28;20072;-73
2020/12/19 02:39:05;;;;;;;26.00;16.20;;;6.10;91.70;;;;;;5056675;28;20029;-73
2020/12/19 02:41:37;;;;;;;26.83;15.07;;;6.10;91.60;;;;;;5056915;28;20342;-73
2020/12/19 02:44:03;;;;;;;27.27;15.47;;;6.10;91.60;;;;;;5056519;28;20032;-73
2020/12/19 02:46:30;;;;;;;26.20;15.17;;;6.10;91.60;;;;;;5056621;28;20021;-73
2020/12/19 02:48:56;;;;;;;27.23;15.27;;;6.10;91.60;;;;;;5055349;28;20114;-73
2020/12/19 02:51:21;;;;;;;26.10;15.90;;;6.10;91.70;;;;;;5056688;28;20485;-73
2020/12/19 02:53:47;;;;;;;30.23;15.80;;;6.10;91.70;;;;;;5056392;28;20039;-73
2020/12/19 02:56:13;;;;;;;24.80;14.60;;;6.10;91.70;;;;;;5055642;28;20477;-73
2020/12/19 02:58:38;;;;;;;27.93;14.80;;;6.10;91.70;;;;;;5055200;28;20032;-73
2020/12/19 03:01:04;;;;;;;24.10;14.77;;;6.10;91.70;;;;;;5056691;28;20025;-73
2020/12/19 03:03:30;;;;;;;26.20;14.27;;;6.10;91.70;;;;;;5056325;28;20037;-73
2020/12/19 03:05:55;;;;;;;28.07;13.97;;;6.10;91.70;;;;;;5056264;28;20049;-73
2020/12/19 03:08:21;;;;;;;26.27;14.87;;;6.00;91.70;;;;;;5056263;28;20028;-73
2020/12/19 03:10:47;;;;;;;24.97;14.23;;;6.10;91.70;;;;;;5056354;28;20414;-72
2020/12/19 03:13:12;;;;;;;25.37;14.10;;;6.10;91.70;;;;;;5056311;28;20033;-72
2020/12/19 03:15:38;;;;;;;25.90;14.80;;;6.00;91.70;;;;;;5056156;28;20104;-73
2020/12/19 03:18:03;;;;;;;27.37;14.57;;;6.00;91.70;;;;;;5054755;28;20078;-73
2020/12/19 03:20:29;;;;;;;26.37;13.93;;;6.00;91.80;;;;;;5055951;28;20029;-73
2020/12/19 03:22:55;;;;;;;25.57;15.20;;;6.00;91.90;;;;;;5055844;28;20029;-73
2020/12/19 03:25:20;;;;;;;25.87;14.67;;;6.00;91.90;;;;;;5056106;28;20029;-73
2020/12/19 03:27:46;;;;;;;27.67;15.73;;;6.10;92.00;;;;;;5055914;28;20064;-73
2020/12/19 03:30:12;;;;;;;27.60;16.27;;;6.10;92.10;;;;;;5054696;28;20039;-73
2020/12/19 03:32:37;;;;;;;25.67;16.30;;;6.10;92.00;;;;;;5055663;28;20075;-73
2020/12/19 03:35:03;;;;;;;24.97;14.47;;;6.10;92.00;;;;;;5055647;28;20036;-73
2020/12/19 03:37:29;;;;;;;27.83;15.13;;;6.00;92.00;;;;;;5054478;28;20021;-74
2020/12/19 03:39:54;;;;;;;25.33;14.97;;;6.00;92.00;;;;;;5054420;28;20469;-73
2020/12/19 03:42:20;;;;;;;30.33;16.10;;;6.00;92.00;;;;;;5055669;28;20021;-73
2020/12/19 03:44:46;;;;;;;25.10;15.00;;;5.90;91.90;;;;;;5054408;28;20029;-73
2020/12/19 03:47:11;;;;;;;30.03;16.00;;;6.00;92.00;;;;;;5055994;28;20027;-82
2020/12/19 03:49:37;;;;;;;28.17;15.07;;;6.00;92.00;;;;;;5055473;28;20029;-82
2020/12/19 03:52:02;;;;;;;26.57;14.97;;;6.00;92.00;;;;;;5054293;28;20024;-82
2020/12/19 03:54:28;;;;;;;26.37;15.13;;;6.00;92.00;;;;;;5037647;28;20025;-82
2020/12/19 03:56:53;;;;;;;26.00;14.63;;;5.90;92.00;;;;;;5054057;28;20501;-81
2020/12/19 03:59:20;;;;;;;27.63;15.67;;;5.90;92.00;;;;;;5054083;28;20036;-82
2020/12/19 04:01:46;;;;;;;27.80;15.83;;;5.90;92.00;;;;;;5063204;28;20020;-82
2020/12/19 04:04:12;;;;;;;26.77;16.20;;;5.90;92.00;;;;;;5056339;28;20049;-82
2020/12/19 04:06:37;;;;;;;26.13;15.43;;;5.90;92.10;;;;;;5073667;28;20013;-83
2020/12/19 04:09:03;;;;;;;26.37;14.97;;;5.90;92.10;;;;;;5075017;28;20056;-82
2020/12/19 04:11:29;;;;;;;31.03;16.23;;;5.90;92.10;;;;;;5066450;28;20036;-82
2020/12/19 04:13:54;;;;;;;26.60;15.43;;;5.90;92.10;;;;;;5068029;28;20115;-82
2020/12/19 04:16:20;;;;;;;29.00;15.63;;;5.80;92.00;;;;;;5074960;28;20038;-83
2020/12/19 04:18:45;;;;;;;32.47;16.60;;;5.80;92.10;;;;;;5070987;28;20531;-82
2020/12/19 04:21:11;;;;;;;27.27;15.93;;;5.80;92.10;;;;;;5074705;28;20029;-81
2020/12/19 04:23:37;;;;;;;28.03;15.30;;;5.80;92.10;;;;;;5056279;28;20484;-82
2020/12/19 04:26:03;;;;;;;29.63;16.30;;;5.70;92.10;;;;;;5056881;28;20025;-82
2020/12/19 04:28:28;;;;;;;30.37;16.90;;;5.80;92.20;;;;;;5074964;28;20472;-82
2020/12/19 04:30:54;;;;;;;30.40;15.77;;;5.70;92.20;;;;;;5074939;28;20523;-82
2020/12/19 04:33:20;;;;;;;29.27;15.60;;;5.70;92.20;;;;;;5073390;28;20024;-82
2020/12/19 04:35:46;;;;;;;30.47;16.53;;;5.70;92.20;;;;;;5073606;28;20110;-82
2020/12/19 04:38:11;;;;;;;30.17;16.03;;;5.70;92.20;;;;;;5074729;28;20032;-82
2020/12/19 04:40:37;;;;;;;27.93;15.33;;;5.70;92.20;;;;;;5074176;28;20495;-82
2020/12/19 04:43:19;;;;;;;33.47;16.23;;;5.70;92.20;;;;;;5074882;28;20553;-82
2020/12/19 04:45:50;;;;;;;27.50;16.00;;;5.70;92.20;;;;;;5074654;28;20067;-82
2020/12/19 04:48:17;;;;;;;32.67;16.03;;;5.70;92.30;;;;;;5056620;28;20492;-82
2020/12/19 04:50:46;;;;;;;27.87;15.63;;;5.70;92.30;;;;;;5074635;28;20035;-82
2020/12/19 04:53:16;;;;;;;29.53;15.73;;;5.60;92.30;;;;;;5073274;28;20024;-82
2020/12/19 04:55:43;;;;;;;27.43;16.03;;;5.70;92.40;;;;;;5056671;28;20502;-83
2020/12/19 04:58:18;;;;;;;32.80;16.97;;;5.60;92.40;;;;;;5074292;28;20095;-82
2020/12/19 05:00:43;;;;;;;31.43;16.23;;;5.60;92.40;;;;;;5071626;28;20379;-83
2020/12/19 05:03:09;;;;;;;28.03;15.43;;;5.70;92.50;;;;;;5074268;28;20041;-83
2020/12/19 05:05:40;;;;;;;27.87;16.00;;;5.70;92.50;;;;;;5073011;28;20032;-82
2020/12/19 05:08:06;;;;;;;29.50;16.27;;;5.70;92.50;;;;;;5073981;28;20092;-83
2020/12/19 05:10:32;;;;;;;25.73;15.17;;;5.70;92.50;;;;;;5074338;28;20075;-82
2020/12/19 05:12:57;;;;;;;26.93;16.30;;;5.70;92.50;;;;;;5056247;28;20103;-82
2020/12/19 05:15:23;;;;;;;32.63;16.07;;;5.70;92.50;;;;;;5073982;28;20024;-82
2020/12/19 05:17:53;;;;;;;27.93;15.27;;;5.70;92.50;;;;;;5074023;28;20056;-82
2020/12/19 05:20:23;;;;;;;25.93;16.13;;;5.70;92.60;;;;;;5073756;28;20122;-82
2020/12/19 05:22:50;;;;;;;29.57;16.07;;;5.70;92.60;;;;;;5074018;28;20033;-82
2020/12/19 05:25:20;;;;;;;29.37;16.03;;;5.70;92.60;;;;;;5073801;28;20108;-82
2020/12/19 05:27:47;;;;;;;28.80;16.33;;;5.70;92.60;;;;;;5072820;28;20024;-82
2020/12/19 05:30:18;;;;;;;27.30;15.30;;;5.70;92.60;;;;;;5073750;28;20035;-82
2020/12/19 05:32:46;;;;;;;26.87;15.03;;;5.70;92.60;;;;;;5073667;28;20058;-82
2020/12/19 05:35:13;;;;;;;28.00;15.23;;;5.70;92.60;;;;;;5073558;28;20538;-82
2020/12/19 05:37:39;;;;;;;30.97;15.50;;;5.70;92.90;;;;;;5073642;28;20021;-82
2020/12/19 05:40:11;;;;;;;28.17;15.40;;;5.70;92.70;;;;;;5072645;28;20032;-82
2020/12/19 05:42:38;;;;;;;27.17;15.27;;;5.70;92.70;;;;;;5073529;28;20480;-82
2020/12/19 05:45:15;;;;;;;28.97;15.23;;;5.70;92.70;;;;;;5073583;28;20082;-82
2020/12/19 05:47:41;;;;;;;27.97;16.47;;;5.70;93.00;;;;;;5071104;28;20420;-83
2020/12/19 05:50:06;;;;;;;29.67;16.00;;;5.70;92.80;;;;;;5072559;28;20151;-83
2020/12/19 05:52:32;;;;;;;24.60;14.47;;;5.70;92.80;;;;;;5072342;28;20050;-82
2020/12/19 05:55:02;;;;;;;28.90;15.77;;;5.70;92.80;;;;;;5073548;28;20384;-82
2020/12/19 05:57:30;;;;;;;29.77;15.17;;;5.80;92.80;;;;;;5072045;28;20111;-82
2020/12/19 05:59:57;;;;;;;26.53;14.87;;;5.80;92.80;;;;;;5071438;28;20119;-82
2020/12/19 06:02:24;;;;;;;25.40;14.87;;;5.80;92.80;;;;;;5073138;28;20025;-82
2020/12/19 06:04:52;;;;;;;27.77;15.60;;;5.80;92.80;;;;;;5073377;28;20032;-82
2020/12/19 06:07:18;;;;;;;24.57;14.97;;;5.80;92.80;;;;;;5073273;28;20020;-82
2020/12/19 06:09:43;;;;;;;24.77;14.27;;;5.80;92.80;;;;;;5072202;28;20087;-83
2020/12/19 06:12:26;;;;;;;24.60;13.83;;;5.80;92.80;;;;;;5073318;28;20021;-82
2020/12/19 06:14:55;;;;;;;26.53;15.50;;;5.80;92.80;;;;;;5073275;28;20021;-83
2020/12/19 06:17:39;;;;;;;27.20;14.63;;;5.80;92.90;;;;;;5073398;28;20100;-82
2020/12/19 06:20:08;;;;;;;25.45;14.55;;;5.80;92.80;;;;;;5073104;28;20066;-82
2020/12/19 06:22:34;;;;;;;28.30;14.73;;;5.80;92.90;;;;;;5073235;28;20107;-82
2020/12/19 06:24:59;;;;;;;26.63;15.90;;;5.80;92.80;;;;;;5073369;28;20055;-83
2020/12/19 06:27:26;;;;;;;24.73;13.37;;;5.80;92.80;;;;;;5071959;28;20039;-83
2020/12/19 06:29:52;;;;;;;29.13;15.23;;;5.80;92.80;;;;;;5073027;28;20488;-82
2020/12/19 06:32:19;;;;;;;24.83;13.93;;;5.80;92.80;;;;;;5071739;28;20064;-82
2020/12/19 06:34:57;;;;;;;22.07;12.70;;;5.80;92.90;;;;;;5072987;28;20032;-82
2020/12/19 06:37:26;;;;;;;23.97;13.87;;;5.80;92.80;;;;;;5072906;28;20502;-82
2020/12/19 06:40:12;;;;;;;24.83;13.97;;;5.70;92.80;;;;;;5072869;28;20025;-82
2020/12/19 06:42:38;;;;;;;22.60;13.57;;;5.70;92.80;;;;;;5071575;28;20497;-83
2020/12/19 06:45:28;;;;;;;25.43;13.83;;;5.70;92.80;;;;;;5072917;28;20044;-82
2020/12/19 06:47:55;;;;;;;25.87;14.20;;;5.70;92.80;;;;;;5072775;28;20025;-73
2020/12/19 06:50:22;;;;;;;26.03;13.63;;;5.70;92.80;;;;;;5072860;28;20025;-72
2020/12/19 06:52:58;;;;;;;23.17;13.37;;;5.70;92.80;;;;;;5072708;28;20025;-72
2020/12/19 06:55:26;;;;;;;21.30;12.33;;;5.70;92.80;;;;;;5072721;28;20028;-73
2020/12/19 06:57:56;;;;;;;24.47;13.93;;;5.70;92.80;;;;;;5072751;28;20021;-73
2020/12/19 07:00:24;;;;;;;23.93;13.30;;;5.60;92.80;;;;;;5071322;28;20119;-73
2020/12/19 07:03:00;;;;;;;23.73;14.33;;;5.60;92.80;;;;;;5072432;28;20131;-73
2020/12/19 07:05:31;;;;;;;23.70;13.23;;;5.70;92.90;;;;;;5065642;28;20036;-73
2020/12/19 07:08:15;;;;;;;26.00;14.03;;;5.70;92.90;;;;;;5072119;28;20024;-73
2020/12/19 07:10:41;;;;;;;22.38;12.57;;;5.70;92.90;;;;;;5055578;28;20047;-73
2020/12/19 07:13:06;;;;;;;20.70;11.67;;;5.70;93.00;;;;;;5054335;28;20404;-73
2020/12/19 07:15:45;;;;;;;22.60;12.83;;;5.70;93.00;;;;;;5056142;28;20021;-73
2020/12/19 07:18:34;;;;;;;23.20;13.57;;;5.80;93.10;;;;;;5054701;28;20431;-73
2020/12/19 07:21:01;;;;;;;22.10;12.83;;;5.80;93.10;;;;;;5038629;28;20499;-73
2020/12/19 07:23:31;;;;;;;21.83;12.63;;;5.80;93.10;;;;;;5055986;28;20036;-74
2020/12/19 07:25:57;;;;;;;22.77;11.93;;;5.80;93.10;;;;;;5056092;28;20052;-73
2020/12/19 07:28:23;;;;;;;22.13;12.90;;;5.80;93.10;;;;;;5056114;28;20476;-73
2020/12/19 07:30:48;;;;;;;20.80;12.63;;;5.80;93.10;;;;;;5054942;28;20033;-73
2020/12/19 07:33:14;;;;;;;26.57;13.90;;;5.90;93.10;;;;;;5056009;28;20460;-73
2020/12/19 07:35:40;;;;;;;23.87;12.57;;;5.90;93.10;;;;;;5055874;28;20036;-74
2020/12/19 07:38:06;;;;;;;25.97;12.37;;;5.90;93.10;;;;;;5055577;28;20025;-73
2020/12/19 07:40:32;;;;;;;25.80;12.60;;;5.90;93.00;;;;;;5054663;28;20457;-73
2020/12/19 07:43:08;;;;;;;21.30;12.33;;;5.90;93.10;;;;;;5055791;28;20028;-74
2020/12/19 07:45:34;;;;;;;23.27;13.07;;;5.90;93.10;;;;;;5054443;28;20111;-73
2020/12/19 07:48:00;;;;;;;24.57;14.27;;;5.90;93.10;;;;;;5054259;28;20465;-74
2020/12/19 07:50:27;;;;;;;26.33;14.20;;;6.10;93.10;;;;;;5055880;28;20129;-73
2020/12/19 07:53:07;;;;;;;24.87;14.23;;;6.00;93.10;;;;;;5055447;28;20037;-74
2020/12/19 07:55:34;;;;;;;23.67;13.20;;;6.00;93.10;;;;;;5059099;28;20033;-74
2020/12/19 07:58:01;;;;;;;27.10;14.87;;;6.00;93.10;;;;;;5068643;28;20040;-73
2020/12/19 08:00:28;;;;;;;25.07;13.60;;;6.00;93.10;;;;;;5063919;28;20033;-74
2020/12/19 08:02:53;;;;;;;23.77;13.77;;;6.10;93.20;;;;;;5063641;28;20392;-73
2020/12/19 08:05:20;;;;;;;24.87;14.30;;;6.20;93.20;;;;;;5057843;28;20036;-74
2020/12/19 08:07:50;;;;;;;25.63;14.53;;;6.20;93.20;;;;;;5069579;28;20032;-74
2020/12/19 08:10:15;;;;;;;24.53;14.43;;;6.30;93.20;;;;;;5075389;28;20024;-74
2020/12/19 08:12:41;;;;;;;22.10;13.40;;;6.20;93.20;;;;;;5075130;28;20051;-74
2020/12/19 08:15:20;;;;;;;23.07;13.27;;;6.20;93.20;;;;;;5074084;28;20483;-74
2020/12/19 08:17:50;;;;;;;25.97;13.60;;;6.30;93.30;;;;;;5073439;28;20493;-74
2020/12/19 08:20:31;;;;;;;25.60;14.53;;;6.20;93.20;;;;;;5075021;28;20487;-74
2020/12/19 08:23:02;;;;;;;23.57;13.07;;;6.30;93.30;;;;;;5073123;28;20021;-75
2020/12/19 08:25:28;;;;;;;24.40;14.40;;;6.30;93.20;;;;;;5075212;28;20437;-74
2020/12/19 08:27:53;;;;;;;24.97;14.70;;;6.30;93.30;;;;;;5073728;28;20020;-75
2020/12/19 08:30:23;;;;;;;23.83;13.50;;;6.30;93.40;;;;;;5074992;28;20021;-75
2020/12/19 08:32:55;;;;;;;25.10;15.43;;;6.40;93.50;;;;;;5074661;28;20024;-75
2020/12/19 08:35:30;;;;;;;21.23;13.93;;;6.50;93.60;;;;;;5074456;28;20028;-74
2020/12/19 08:38:12;;;;;;;24.33;13.77;;;6.60;93.60;;;;;;5074644;28;20024;-74
2020/12/19 08:40:44;;;;;;;18.63;12.73;;;6.60;93.60;;;;;;5074958;28;20029;-74
2020/12/19 08:43:13;;;;;;;28.50;14.93;;;6.60;93.60;;;;;;5074665;28;20031;-75
2020/12/19 08:45:49;;;;;;;23.17;15.57;;;6.70;93.70;;;;;;5074282;28;20021;-74
2020/12/19 08:48:17;;;;;;;25.87;14.50;;;6.80;93.70;;;;;;5073064;28;20020;-75
2020/12/19 08:50:44;;;;;;;24.93;14.37;;;6.80;93.70;;;;;;5074444;28;20487;-75
2020/12/19 08:53:16;;;;;;;22.37;13.80;;;6.80;93.80;;;;;;5074206;28;20024;-74
2020/12/19 08:55:42;;;;;;;21.00;12.70;;;6.90;93.70;;;;;;5074059;28;20054;-74
2020/12/19 08:58:19;;;;;;;24.63;14.83;;;7.00;93.80;;;;;;5067077;28;20032;-75
2020/12/19 09:00:45;;;;;;;21.13;13.83;;;7.00;93.80;;;;;;5053324;28;20029;-74
2020/12/19 09:03:10;;;;;;;26.83;15.07;;;7.10;93.80;;;;;;5052732;28;20053;-74
2020/12/19 09:05:42;;;;;;;23.10;13.00;;;7.20;93.80;;;;;;5052700;28;20037;-75
2020/12/19 09:08:09;;;;;;;22.27;13.43;;;7.20;93.80;;;;;;5053993;28;20469;-74
2020/12/19 09:10:35;;;;;;;21.00;13.63;;;7.20;93.80;;;;;;5054113;28;20492;-74
2020/12/19 09:13:21;;;;;;;21.17;13.13;;;7.30;93.80;;;;;;5035721;28;20033;-75
2020/12/19 09:15:47;;;;;;;18.67;12.00;;;7.40;93.80;;;;;;5052516;28;20021;-75
2020/12/19 09:18:13;;;;;;;19.23;13.30;;;7.60;93.80;;;;;;5052576;28;20029;-75
2020/12/19 09:20:39;;;;;;;21.00;12.80;;;7.50;94.00;;;;;;5053882;28;20498;-75
2020/12/19 09:23:05;;;;;;;22.27;13.00;;;7.60;93.80;;;;;;5052991;28;20107;-75
2020/12/19 09:25:32;;;;;;;20.77;12.57;;;7.80;93.80;;;;;;5054111;28;20017;-74
2020/12/19 09:27:58;;;;;;;18.03;12.03;;;7.80;93.80;;;;;;5052517;28;20422;-75
2020/12/19 09:30:24;;;;;;;19.07;12.37;;;8.00;93.90;;;;;;5053824;28;20057;-77
2020/12/19 09:32:49;;;;;;;20.30;12.10;;;8.30;94.30;;;;;;5053805;28;20353;-75
2020/12/19 09:35:15;;;;;;;16.10;10.33;;;8.60;94.10;;;;;;5052496;28;20477;-75
2020/12/19 09:37:40;;;;;;;17.00;10.03;;;8.90;94.30;;;;;;5053585;28;20029;-75
2020/12/19 09:40:06;;;;;;;15.03;9.20;;;9.40;94.40;;;;;;5053629;28;20025;-76
2020/12/19 09:42:32;;;;;;;14.20;8.73;;;9.80;94.50;;;;;;5052327;28;20036;-75
2020/12/19 09:44:57;;;;;;;13.63;7.83;;;10.40;94.40;;;;;;5058333;28;20023;-75
2020/12/19 09:47:23;;;;;;;12.18;7.22;;;11.00;94.30;;;;;;5060639;28;20025;-73
2020/12/19 09:49:48;;;;;;;11.45;6.90;;;11.60;94.10;;;;;;5061106;28;20020;-72
2020/12/19 09:52:14;;;;;;;10.27;6.03;;;12.30;93.90;;;;;;5046161;28;20040;-74
2020/12/19 09:54:40;;;;;;;10.07;6.13;;;12.90;93.30;;;;;;5058306;28;20111;-73
2020/12/19 09:57:05;;;;;;;10.25;5.75;;;13.40;93.00;;;;;;5053635;28;20063;-73
2020/12/19 09:59:31;;;;;;;10.68;5.75;;;14.00;92.50;;;;;;5051908;28;20033;-74
2020/12/19 10:01:56;;;;;;;9.63;4.95;;;14.50;91.90;;;;;;5062836;28;20032;-73
2020/12/19 10:04:22;;;;;;;9.85;5.55;;;15.10;91.40;;;;;;5071790;28;20075;-73
2020/12/19 10:06:51;;;;;;;12.05;5.25;;;15.70;90.90;;;;;;5073222;28;20033;-74
2020/12/19 10:09:16;;;;;;;9.75;5.90;;;16.40;88.70;;;;;;5073074;28;20058;-75
2020/12/19 10:11:43;;;;;;;7.82;4.80;;;16.80;85.80;;;;;;5073231;28;20531;-75
2020/12/19 10:14:09;;;;;;;7.13;4.55;;;17.20;83.00;;;;;;5071832;28;20060;-75
2020/12/19 10:16:35;;;;;;;7.47;5.35;;;17.20;78.20;;;;;;5071696;28;20059;-75
2020/12/19 10:19:00;;;;;;;12.63;6.53;;;17.10;73.80;;;;;;5073098;28;20104;-75
2020/12/19 10:21:26;;;;;;;8.40;5.40;;;16.90;70.40;;;;;;5071732;28;20498;-75
2020/12/19 10:23:52;;;;;;;10.40;6.20;;;16.70;68.50;;;;;;5071742;28;20481;-77
2020/12/19 10:26:18;;;;;;;12.30;6.72;;;16.40;67.00;;;;;;5073490;28;20024;-75
2020/12/19 10:28:43;;;;;;;10.85;6.28;;;16.00;66.40;;;;;;5073090;28;20025;-76
2020/12/19 10:31:09;;;;;;;10.00;6.30;;;15.70;66.20;;;;;;5069343;28;20473;-75
2020/12/19 10:33:34;;;;;;;10.05;6.07;;;15.40;66.90;;;;;;5051305;28;20033;-76
2020/12/19 10:36:00;;;;;;;11.02;6.78;;;15.10;67.30;;;;;;5051593;28;20389;-76
2020/12/19 10:38:25;;;;;;;10.00;6.43;;;14.90;67.70;;;;;;5051458;28;20068;-75
2020/12/19 10:40:51;;;;;;;11.70;6.78;;;14.70;68.10;;;;;;5052978;28;20025;-75
2020/12/19 10:43:18;;;;;;;9.88;5.93;;;14.40;68.90;;;;;;5051961;28;20040;-76
2020/12/19 10:45:45;;;;;;;13.10;7.38;;;14.20;69.40;;;;;;5052177;28;20366;-82
2020/12/19 10:48:11;;;;;;;13.18;7.22;;;14.00;70.00;;;;;;5055493;28;20056;-82
2020/12/19 10:50:36;;;;;;;13.30;7.60;;;13.80;70.60;;;;;;5056405;28;20381;-85
2020/12/19 10:53:02;;;;;;;12.73;7.15;;;13.70;71.10;;;;;;5056523;28;20125;-85
2020/12/19 10:55:28;;;;;;;11.40;6.47;;;13.50;71.60;;;;;;5056188;28;20032;-82
2020/12/19 10:57:53;;;;;;;10.27;6.70;;;13.40;72.20;;;;;;5055398;28;20021;-84
2020/12/19 11:00:19;;;;;;;10.45;6.45;;;13.30;73.30;;;;;;5038352;28;20473;-83
2020/12/19 11:02:45;;;;;;;13.27;5.95;;;13.20;73.10;;;;;;5056640;28;20041;-85
2020/12/19 11:05:11;;;;;;;11.02;6.43;;;13.20;73.40;;;;;;5056243;28;20025;-85
2020/12/19 11:07:36;;;;;;;12.80;6.10;;;13.10;73.60;;;;;;5056580;28;20112;-83
2020/12/19 11:10:03;;;;;;;13.02;6.80;;;13.00;73.50;;;;;;5057358;28;20032;-85
2020/12/19 11:12:28;;;;;;;13.10;6.50;;;13.00;74.00;;;;;;5056702;28;20391;-81
2020/12/19 11:14:54;;;;;;;10.90;5.78;;;12.90;74.30;;;;;;5039422;28;20119;-83
2020/12/19 11:17:19;;;;;;;13.40;6.30;;;12.80;74.60;;;;;;5039319;28;20036;-85
2020/12/19 11:19:45;;;;;;;11.00;6.22;;;12.80;75.00;;;;;;5022054;28;20477;-83
2020/12/19 11:22:11;;;;;;;13.30;6.00;;;12.70;75.00;;;;;;5056460;28;20067;-81
2020/12/19 11:24:36;;;;;;;11.77;5.90;;;12.80;75.20;;;;;;5021809;28;20470;-83
2020/12/19 11:27:02;;;;;;;10.20;5.70;;;12.60;75.40;;;;;;5038318;28;20036;-84
2020/12/19 11:29:28;;;;;;;10.63;5.85;;;12.60;75.80;;;;;;5055031;28;20515;-85
2020/12/19 11:31:53;;;;;;;12.48;6.25;;;12.60;76.70;;;;;;5038623;28;20033;-84
2020/12/19 11:34:19;;;;;;;11.60;6.55;;;12.60;76.10;;;;;;5055141;28;20029;-84
2020/12/19 11:36:45;;;;;;;11.25;5.90;;;12.70;76.30;;;;;;5038591;28;20536;-88
2020/12/19 11:39:11;;;;;;;11.52;5.75;;;12.80;76.20;;;;;;5038221;28;20032;-84
2020/12/19 11:41:41;;;;;;;10.82;5.78;;;12.90;76.20;;;;;;5038457;28;20033;-85
2020/12/19 11:44:09;;;;;;;9.80;5.30;;;13.00;75.80;;;;;;5054460;28;20408;-83
2020/12/19 11:46:35;;;;;;;10.70;6.15;;;13.10;75.80;;;;;;5054441;28;20116;-83
2020/12/19 11:49:01;;;;;;;10.70;5.97;;;13.10;75.50;;;;;;5054634;28;20181;-85
2020/12/19 11:51:28;;;;;;;10.52;5.35;;;13.20;75.10;;;;;;5055801;28;20033;-85
2020/12/19 11:53:54;;;;;;;8.50;4.82;;;13.10;74.60;;;;;;5038532;28;20112;-87
2020/12/19 11:56:19;;;;;;;12.40;5.47;;;13.10;74.50;;;;;;5054779;28;20068;-84
2020/12/19 11:58:45;;;;;;;9.27;5.00;;;13.10;74.80;;;;;;5021049;28;20060;-83
2020/12/19 12:01:11;;;;;;;10.48;4.53;;;13.10;74.70;;;;;;5055859;28;20033;-85
2020/12/19 12:03:36;;;;;;;8.70;4.43;;;13.30;75.20;;;;;;5044737;28;20451;-83
2020/12/19 12:06:02;;;;;;;12.48;5.25;;;13.70;75.40;;;;;;5074299;28;20082;-84
2020/12/19 12:08:27;;;;;;;8.80;4.78;;;14.10;74.20;;;;;;5074664;28;20392;-88
2020/12/19 12:10:53;;;;;;;8.35;4.55;;;14.30;73.50;;;;;;5058265;28;20373;-85
2020/12/19 12:13:19;;;;;;;7.90;4.53;;;14.40;71.40;;;;;;5074443;28;20028;-84
2020/12/19 12:15:45;;;;;;;8.45;5.03;;;14.30;70.80;;;;;;5040902;28;20060;-84
2020/12/19 12:18:10;;;;;;;13.52;5.28;;;14.10;71.00;;;;;;5075343;28;20028;-85
2020/12/19 12:20:36;;;;;;;9.05;5.35;;;13.90;71.00;;;;;;5041000;28;20027;-85
2020/12/19 12:23:01;;;;;;;10.57;4.88;;;13.70;71.50;;;;;;5057499;28;20047;-85
2020/12/19 12:25:27;;;;;;;10.55;6.10;;;13.50;72.10;;;;;;5074016;28;20074;-85
2020/12/19 12:27:53;;;;;;;9.50;5.55;;;13.30;72.80;;;;;;5040770;28;20021;-84
2020/12/19 12:30:18;;;;;;;9.40;4.93;;;13.20;73.40;;;;;;5074681;28;20051;-83
2020/12/19 12:32:44;;;;;;;11.63;5.15;;;13.10;74.10;;;;;;5074912;28;20028;-85
2020/12/19 12:35:10;;;;;;;10.70;6.60;;;12.90;74.60;;;;;;5041141;28;20141;-84
2020/12/19 12:37:36;;;;;;;10.65;5.93;;;12.80;75.00;;;;;;5074454;28;20047;-82